createdAt,value
2022-09-29T00:05:10.745Z,99753.00
2022-09-29T00:15:32.739Z,99762.00
2022-09-29T00:26:14.986Z,99755.00
2022-09-29T00:36:36.768Z,99764.00
2022-09-29T00:47:02.923Z,99753.00
2022-09-29T00:57:28.875Z,99755.00
2022-09-29T01:07:59.513Z,99755.00
2022-09-29T01:18:21.480Z,99769.00
2022-09-29T01:29:13.428Z,99782.00
2022-09-29T01:39:40.673Z,99792.00
2022-09-29T01:50:05.563Z,99797.00
2022-09-29T02:00:33.271Z,99797.00
2022-09-29T02:10:58.578Z,99809.00
2022-09-29T02:21:23.569Z,99817.00
2022-09-29T02:31:51.502Z,99812.00
2022-09-29T02:42:22.575Z,99827.00
2022-09-29T02:52:50.830Z,99822.00
2022-09-29T03:03:19.595Z,99824.00
2022-09-29T03:13:48.890Z,99825.00
2022-09-29T03:24:11.694Z,99828.00
2022-09-29T03:34:34.246Z,99837.00
2022-09-29T03:45:09.925Z,99837.00
2022-09-29T03:55:31.929Z,99849.00
2022-09-29T04:06:01.528Z,99850.00
2022-09-29T04:16:34.404Z,99850.00
2022-09-29T04:27:00.102Z,99856.00
2022-09-29T04:37:21.494Z,99869.00
2022-09-29T04:47:44.359Z,99866.00
2022-09-29T04:58:06.686Z,99887.00
2022-09-29T05:08:29.406Z,99890.00
2022-09-29T05:18:51.868Z,99899.00
2022-09-29T05:29:15.229Z,99903.00
2022-09-29T05:39:37.417Z,99906.00
2022-09-29T05:50:00.014Z,99900.00
2022-09-29T06:00:21.954Z,99916.00
2022-09-29T06:10:45.040Z,99923.00
2022-09-29T06:21:08.665Z,99937.00
2022-09-29T06:31:32.707Z,99939.00
2022-09-29T06:41:56.188Z,99934.00
2022-09-29T06:52:21.496Z,99936.00
2022-09-29T07:02:46.411Z,99945.00
2022-09-29T07:13:09.451Z,99938.00
2022-09-29T07:23:30.818Z,99951.00
2022-09-29T07:33:54.023Z,99957.00
2022-09-29T07:44:15.318Z,99964.00
2022-09-29T07:54:38.183Z,99976.00
2022-09-29T08:05:03.255Z,99982.00
2022-09-29T08:15:28.775Z,99993.00
2022-09-29T08:26:00.596Z,99992.00
2022-09-29T08:36:24.867Z,99994.00
2022-09-29T08:46:59.294Z,100013.00
2022-09-29T08:57:30.521Z,100029.00
2022-09-29T09:08:04.153Z,100020.00
2022-09-29T09:18:47.726Z,100031.00
2022-09-29T09:29:15.868Z,100036.00
2022-09-29T09:39:44.807Z,100044.00
2022-09-29T09:50:15.379Z,100053.00
2022-09-29T10:00:42.362Z,100065.00
2022-09-29T10:11:04.078Z,100074.00
2022-09-29T10:21:37.157Z,100078.00
2022-09-29T10:32:01.542Z,100075.00
2022-09-29T10:42:27.268Z,100095.00
2022-09-29T10:52:53.751Z,100080.00
2022-09-29T11:03:22.516Z,100081.00
2022-09-29T11:13:46.542Z,100106.00
2022-09-29T11:24:13.058Z,100113.00
2022-09-29T11:34:53.395Z,100116.00
2022-09-29T11:55:49.734Z,100127.00
2022-09-29T12:06:33.140Z,100108.00
2022-09-29T12:16:59.739Z,100114.00
2022-09-29T12:27:26.079Z,100115.00
2022-09-29T12:37:53.632Z,100114.00
2022-09-29T12:48:41.729Z,100098.00
2022-09-29T12:59:09.104Z,100097.00
2022-09-29T13:09:47.430Z,100115.00
2022-09-29T13:20:32.757Z,100137.00
2022-09-29T13:30:59.720Z,100141.00
2022-09-29T13:41:39.514Z,100153.00
2022-09-29T13:52:33.044Z,100159.00
2022-09-29T14:03:09.212Z,100157.00
2022-09-29T14:13:40.830Z,100169.00
2022-09-29T14:24:04.110Z,100184.00
2022-09-29T14:34:30.472Z,100175.00
2022-09-29T14:45:09.143Z,100186.00
2022-09-29T14:55:43.855Z,100194.00
2022-09-29T15:06:12.036Z,100218.00
2022-09-29T15:16:44.064Z,100222.00
2022-09-29T15:27:09.426Z,100233.00
2022-09-29T15:38:10.452Z,100228.00
2022-09-29T15:48:43.299Z,100237.00
2022-09-29T15:59:20.892Z,100245.00
2022-09-29T16:09:49.142Z,100239.00
2022-09-29T16:20:24.216Z,100250.00
2022-09-29T16:31:16.643Z,100268.00
2022-09-29T16:41:51.391Z,100283.00
2022-09-29T16:52:16.945Z,100293.00
2022-09-29T17:02:43.676Z,100307.00
2022-09-29T17:13:18.073Z,100334.00
2022-09-29T17:23:40.982Z,100346.00
2022-09-29T17:34:09.735Z,100351.00
2022-09-29T17:44:40.766Z,100360.00
2022-09-29T17:55:02.335Z,100360.00
2022-09-29T18:05:26.160Z,100368.00
2022-09-29T18:15:47.832Z,100384.00
2022-09-29T18:26:12.499Z,100399.00
2022-09-29T18:36:34.225Z,100400.00
2022-09-29T18:46:57.466Z,100406.00
2022-09-29T18:57:19.882Z,100393.00
2022-09-29T19:07:42.906Z,100418.00
2022-09-29T19:18:05.308Z,100406.00
2022-09-29T19:28:28.106Z,100418.00
2022-09-29T19:38:50.185Z,100430.00
2022-09-29T19:49:13.487Z,100418.00
2022-09-29T19:59:45.635Z,100430.00
2022-09-29T20:10:15.248Z,100438.00
2022-09-29T20:20:44.376Z,100448.00
2022-09-29T20:31:13.662Z,100448.00
2022-09-29T20:41:39.255Z,100467.00
2022-09-29T20:52:03.062Z,100469.00
2022-09-29T21:02:30.353Z,100479.00
2022-09-29T21:12:54.703Z,100488.00
2022-09-29T21:23:15.953Z,100509.00
2022-09-29T21:33:43.249Z,100517.00
2022-09-29T21:44:11.238Z,100526.00
2022-09-29T21:54:37.595Z,100530.00
2022-09-29T22:04:58.991Z,100541.00
2022-09-29T22:15:22.271Z,100549.00
2022-09-29T22:25:44.917Z,100554.00
2022-09-29T22:36:08.358Z,100558.00
2022-09-29T22:46:31.116Z,100564.00
2022-09-29T22:56:54.740Z,100570.00
2022-09-29T23:07:18.896Z,100568.00
2022-09-29T23:17:42.193Z,100575.00
2022-09-29T23:28:04.894Z,100578.00
2022-09-29T23:38:46.967Z,100587.00
2022-09-29T23:49:13.118Z,100596.00
2022-09-29T23:59:48.331Z,100597.00
